Time;durP1;ratioP1;P1;durP2;ratioP2;P2;SDS_P1;SDS_P2;PMS_P1;PMS_P2;Temp;Humidity;BMP_temperature;BMP_pressure;BME280_temperature;BME280_humidity;BME280_pressure;Samples;Min_cycle;Max_cycle;Signal;HPM_P1;HPM_P2
2022/10/22 00:02:04;;;;;;;2.97;1.10;;;22.90;74.20;;;;;;10536341;28;20117;-42
2022/10/22 00:07:06;;;;;;;5.90;1.30;;;23.00;74.30;;;;;;10534199;28;20043;-44
2022/10/22 00:12:10;;;;;;;6.68;1.20;;;23.00;74.10;;;;;;10535507;28;20051;-43
2022/10/22 00:17:12;;;;;;;2.08;1.27;;;22.70;74.20;;;;;;10535156;28;20097;-41
2022/10/22 00:22:14;;;;;;;4.10;1.55;;;23.10;73.80;;;;;;10537170;28;20079;-41
2022/10/22 00:27:17;;;;;;;3.42;1.52;;;23.10;73.40;;;;;;10536446;28;20067;-43
2022/10/22 00:32:19;;;;;;;5.10;1.77;;;22.90;73.90;;;;;;10533422;28;20044;-41
2022/10/22 00:37:21;;;;;;;3.50;1.60;;;22.90;74.30;;;;;;10534121;28;20432;-43
2022/10/22 00:42:26;;;;;;;4.53;2.00;;;23.00;74.00;;;;;;10537089;28;20067;-43
2022/10/22 00:47:32;;;;;;;5.43;2.13;;;22.50;74.20;;;;;;10525470;28;20067;-41
2022/10/22 00:52:34;;;;;;;4.10;1.85;;;22.90;74.20;;;;;;10534847;28;20083;-43
2022/10/22 00:57:38;;;;;;;4.18;1.55;;;22.80;74.50;;;;;;10541584;28;20044;-46
2022/10/22 01:02:40;;;;;;;4.63;1.33;;;22.90;74.20;;;;;;10537629;28;20040;-42
2022/10/22 01:07:44;;;;;;;;;;;22.70;74.50;;;;;;10523945;28;20101;-44
2022/10/22 01:12:54;;;;;;;9.35;1.55;;;22.80;74.90;;;;;;10531293;28;20023;-42
2022/10/22 01:18:00;;;;;;;3.83;1.23;;;22.80;74.30;;;;;;10526146;28;20077;-43
2022/10/22 01:23:15;;;;;;;6.03;2.38;;;22.70;75.20;;;;;;10534654;28;20495;-41
2022/10/22 01:28:27;;;;;;;4.07;1.40;;;22.50;75.20;;;;;;10530608;28;20097;-43
2022/10/22 01:33:32;;;;;;;9.30;1.85;;;22.60;75.00;;;;;;10527299;28;20075;-41
2022/10/22 01:38:34;;;;;;;7.30;1.60;;;22.90;74.90;;;;;;10537532;28;20044;-42
2022/10/22 01:43:36;;;;;;;;;;;22.50;76.20;;;;;;10533713;28;20139;-42
2022/10/22 01:48:48;;;;;;;5.73;2.10;;;22.50;75.50;;;;;;10542315;28;19965;-43
2022/10/22 01:53:54;;;;;;;2.30;1.00;;;22.60;75.50;;;;;;10525632;28;20117;-44
2022/10/22 01:59:04;;;;;;;4.05;1.33;;;22.40;74.90;;;;;;10540472;28;20040;-43
2022/10/22 02:04:16;;;;;;;3.13;1.45;;;22.50;76.20;;;;;;10532430;28;20476;-44
2022/10/22 02:09:21;;;;;;;5.00;1.45;;;22.30;76.80;;;;;;10534113;28;20661;-44
2022/10/22 02:14:26;;;;;;;1.70;1.00;;;22.20;76.50;;;;;;10527571;28;20075;-44
2022/10/22 02:19:38;;;;;;;1.90;0.90;;;22.50;76.10;;;;;;10538621;28;20161;-40
2022/10/22 02:24:40;;;;;;;2.30;0.90;;;22.50;75.30;;;;;;10544083;28;20097;-43
2022/10/22 02:29:44;;;;;;;;;;;22.60;75.50;;;;;;10533643;28;20287;-45
2022/10/22 02:34:49;;;;;;;9.02;1.65;;;22.30;75.80;;;;;;10522971;28;19920;-46
2022/10/22 02:39:52;;;;;;;3.55;1.10;;;22.30;76.00;;;;;;10532454;28;20078;-45
2022/10/22 02:44:53;;;;;;;4.03;1.13;;;22.20;76.80;;;;;;10540091;28;20070;-47
2022/10/22 02:49:57;;;;;;;4.28;0.88;;;22.40;76.00;;;;;;10531901;28;20558;-46
2022/10/22 02:54:58;;;;;;;3.65;1.30;;;22.50;75.70;;;;;;10531124;28;20079;-44
2022/10/22 03:00:00;;;;;;;4.75;1.02;;;22.40;74.90;;;;;;10532335;28;20040;-41
2022/10/22 03:05:04;;;;;;;4.13;1.02;;;22.30;76.50;;;;;;10531578;28;20040;-43
2022/10/22 03:10:07;;;;;;;1.50;0.88;;;22.40;75.50;;;;;;10534911;28;20105;-39
2022/10/22 03:15:09;;;;;;;4.72;1.15;;;22.30;76.20;;;;;;10537200;28;20084;-41
2022/10/22 03:20:12;;;;;;;2.92;0.90;;;22.30;76.60;;;;;;10534845;28;20084;-45
2022/10/22 03:25:19;;;;;;;4.40;1.55;;;22.30;75.80;;;;;;10547060;28;20044;-44
2022/10/22 03:30:21;;;;;;;7.63;1.50;;;22.20;76.00;;;;;;10539490;28;20066;-47
2022/10/22 03:35:24;;;;;;;1.52;0.90;;;22.00;75.90;;;;;;10538680;28;20121;-45
2022/10/22 03:40:26;;;;;;;2.70;1.02;;;22.20;76.80;;;;;;10544838;28;20043;-40
2022/10/22 03:45:28;;;;;;;1.88;0.73;;;22.30;76.30;;;;;;10538367;28;20146;-41
2022/10/22 03:50:31;;;;;;;4.47;1.35;;;22.30;75.70;;;;;;10538349;28;20056;-43
2022/10/22 03:55:33;;;;;;;2.88;1.10;;;21.90;77.10;;;;;;10542204;28;20590;-42
2022/10/22 04:00:36;;;;;;;4.70;0.77;;;22.30;76.20;;;;;;10551545;28;20076;-40
2022/10/22 04:05:39;;;;;;;3.17;0.95;;;22.20;75.70;;;;;;10536065;28;20454;-43
2022/10/22 04:10:41;;;;;;;4.95;1.00;;;22.00;77.20;;;;;;10535844;28;20054;-43
2022/10/22 04:15:43;;;;;;;1.40;0.90;;;21.80;77.90;;;;;;10531897;28;20508;-44
2022/10/22 04:20:46;;;;;;;1.65;0.88;;;22.10;77.30;;;;;;10536360;28;20087;-47
2022/10/22 04:25:48;;;;;;;5.90;1.50;;;22.30;75.60;;;;;;10555140;28;20214;-45
2022/10/22 04:30:50;;;;;;;3.22;1.02;;;22.00;75.90;;;;;;10534381;28;20044;-47
2022/10/22 04:35:53;;;;;;;2.17;1.10;;;21.80;77.40;;;;;;10537728;28;20452;-43
2022/10/22 04:40:55;;;;;;;1.48;0.63;;;21.80;77.80;;;;;;10536365;28;20080;-44
2022/10/22 04:46:00;;;;;;;1.42;0.70;;;21.60;79.40;;;;;;10534291;28;20040;-42
2022/10/22 04:51:05;;;;;;;2.95;0.98;;;21.80;78.30;;;;;;10532527;28;20138;-43
2022/10/22 04:56:09;;;;;;;6.05;1.08;;;21.70;78.30;;;;;;10533631;28;20074;-38
2022/10/22 05:01:13;;;;;;;7.00;0.90;;;21.80;77.50;;;;;;10532849;28;20127;-43
2022/10/22 05:06:19;;;;;;;1.67;0.90;;;21.60;78.80;;;;;;10535551;28;20127;-42
2022/10/22 05:11:24;;;;;;;4.78;1.42;;;20.70;83.70;;;;;;10536381;28;20093;-40
2022/10/22 05:16:27;;;;;;;3.08;0.88;;;21.30;80.20;;;;;;10533729;28;20715;-42
2022/10/22 05:21:31;;;;;;;4.18;1.27;;;21.30;81.00;;;;;;10534240;28;20478;-43
2022/10/22 05:26:32;;;;;;;7.93;1.75;;;20.10;85.70;;;;;;10545433;28;20460;-44
2022/10/22 05:31:34;;;;;;;8.45;1.42;;;20.50;84.00;;;;;;10531119;28;20148;-45
2022/10/22 05:36:38;;;;;;;3.53;0.98;;;20.60;82.00;;;;;;10533742;28;20051;-43
2022/10/22 05:41:40;;;;;;;10.02;1.50;;;20.60;84.70;;;;;;10534031;28;20076;-44
2022/10/22 05:46:42;;;;;;;3.38;1.20;;;20.50;82.80;;;;;;10527544;28;20101;-43
2022/10/22 05:51:45;;;;;;;2.85;0.75;;;19.90;88.40;;;;;;10528937;28;20466;-44
2022/10/22 05:56:47;;;;;;;8.52;1.63;;;20.50;86.50;;;;;;10529077;28;20075;-40
2022/10/22 06:01:49;;;;;;;;;;;20.60;84.10;;;;;;10529407;28;20549;-43
2022/10/22 06:06:53;;;;;;;6.50;1.02;;;19.90;85.50;;;;;;10525651;28;19953;-38
2022/10/22 06:11:56;;;;;;;2.22;0.82;;;20.80;82.70;;;;;;10519409;28;20047;-44
2022/10/22 06:16:59;;;;;;;8.30;1.60;;;20.70;84.50;;;;;;10534244;28;20087;-40
2022/10/22 06:22:03;;;;;;;10.30;2.00;;;20.60;82.30;;;;;;10527101;28;20544;-44
2022/10/22 06:27:05;;;;;;;6.57;1.25;;;18.40;90.80;;;;;;10534606;28;20037;-43
2022/10/22 06:32:07;;;;;;;10.98;1.30;;;18.20;93.30;;;;;;10520665;28;20135;-42
2022/10/22 06:37:12;;;;;;;4.50;1.45;;;18.60;92.50;;;;;;10528908;28;20075;-42
2022/10/22 06:42:14;;;;;;;8.82;2.20;;;19.40;90.50;;;;;;10528329;28;20145;-40
2022/10/22 06:47:16;;;;;;;9.07;1.27;;;18.50;93.00;;;;;;10530983;28;20139;-39
2022/10/22 06:52:19;;;;;;;11.40;1.23;;;18.30;93.50;;;;;;10534172;28;20113;-38
2022/10/22 06:57:21;;;;;;;6.40;1.50;;;18.40;92.90;;;;;;10529809;28;20143;-42
2022/10/22 07:02:23;;;;;;;6.72;1.50;;;18.30;93.40;;;;;;10541130;28;20052;-43
2022/10/22 07:07:26;;;;;;;2.80;0.90;;;18.20;93.70;;;;;;10537593;28;20073;-39
2022/10/22 07:12:28;;;;;;;6.05;1.00;;;19.90;90.10;;;;;;10530329;28;20096;-41
2022/10/22 07:17:30;;;;;;;3.58;1.40;;;19.30;91.00;;;;;;10536299;28;20561;-43
2022/10/22 07:22:33;;;;;;;3.53;1.10;;;18.90;92.30;;;;;;10539463;28;20123;-41
2022/10/22 07:27:35;;;;;;;6.47;1.70;;;18.20;94.40;;;;;;10536465;28;20051;-42
2022/10/22 07:32:37;;;;;;;6.43;1.23;;;18.50;92.90;;;;;;10531689;28;20043;-44
2022/10/22 07:37:40;;;;;;;2.80;0.77;;;17.90;94.90;;;;;;10536542;28;20093;-40
2022/10/22 07:42:42;;;;;;;11.45;1.40;;;18.20;94.60;;;;;;10536678;28;20075;-43
2022/10/22 07:47:44;;;;;;;3.30;0.75;;;17.30;96.70;;;;;;10535134;28;20412;-40
2022/10/22 07:52:47;;;;;;;9.30;2.10;;;18.20;94.40;;;;;;10534819;28;20087;-44
2022/10/22 07:57:49;;;;;;;4.50;0.95;;;17.40;96.20;;;;;;10533057;28;20129;-41
2022/10/22 08:02:51;;;;;;;12.27;1.97;;;18.00;95.30;;;;;;10535381;28;20140;-41
2022/10/22 08:07:54;;;;;;;6.70;1.00;;;17.60;96.30;;;;;;10533612;28;20127;-42
2022/10/22 08:12:56;;;;;;;4.72;0.88;;;17.40;96.80;;;;;;10523694;28;20137;-44
2022/10/22 08:17:58;;;;;;;8.02;1.38;;;18.10;95.10;;;;;;10532649;28;20469;-48
2022/10/22 08:23:01;;;;;;;6.00;1.52;;;19.10;91.90;;;;;;10524852;28;20060;-42
2022/10/22 08:28:03;;;;;;;8.55;2.10;;;18.50;94.80;;;;;;10546992;28;20048;-44
2022/10/22 08:33:05;;;;;;;6.82;1.67;;;17.50;97.10;;;;;;10529216;28;20147;-42
2022/10/22 08:38:09;;;;;;;9.20;1.80;;;17.40;97.70;;;;;;10534002;28;20080;-44
2022/10/22 08:43:27;;;;;;;7.65;1.67;;;17.70;96.60;;;;;;10533379;28;20040;-42
2022/10/22 08:48:41;;;;;;;6.00;1.17;;;18.40;94.80;;;;;;10532943;28;20101;-42
2022/10/22 08:53:57;;;;;;;10.38;1.80;;;18.40;94.70;;;;;;10536479;28;20048;-45
2022/10/22 08:59:04;;;;;;;11.20;1.67;;;17.30;98.50;;;;;;10543666;28;20072;-41
2022/10/22 09:04:11;;;;;;;11.65;1.90;;;17.20;98.80;;;;;;10532021;28;20494;-46
2022/10/22 09:09:17;;;;;;;10.63;1.92;;;17.40;99.10;;;;;;10525277;28;20082;-41
2022/10/22 09:14:21;;;;;;;17.65;1.73;;;17.50;98.60;;;;;;10526473;28;20458;-45
2022/10/22 09:19:30;;;;;;;8.73;1.80;;;17.50;98.80;;;;;;10532076;28;20712;-43
2022/10/22 09:24:37;;;;;;;12.00;1.75;;;17.30;99.50;;;;;;10541935;28;20072;-42
2022/10/22 09:29:40;;;;;;;14.50;2.33;;;17.70;98.50;;;;;;10532312;28;20048;-45
2022/10/22 09:34:43;;;;;;;15.40;2.20;;;17.40;99.20;;;;;;10531215;28;20349;-46
2022/10/22 09:39:51;;;;;;;16.45;2.90;;;17.20;99.70;;;;;;10527761;28;20086;-42
2022/10/22 09:44:54;;;;;;;9.32;1.63;;;16.80;99.90;;;;;;10529263;28;20697;-43
2022/10/22 09:50:07;;;;;;;11.85;1.73;;;17.90;97.90;;;;;;10526384;28;20048;-43
2022/10/22 09:55:16;;;;;;;13.20;2.30;;;17.50;98.90;;;;;;10532093;28;20106;-45
2022/10/22 10:00:19;;;;;;;17.38;3.20;;;17.50;99.00;;;;;;10534512;28;20066;-45
2022/10/22 10:05:24;;;;;;;;;;;17.00;99.90;;;;;;10530863;28;20044;-44
2022/10/22 10:10:37;;;;;;;25.83;3.50;;;18.20;96.80;;;;;;10530249;28;20011;-42
2022/10/22 10:15:44;;;;;;;19.65;2.53;;;18.00;97.00;;;;;;10522436;28;20091;-45
2022/10/22 10:20:54;;;;;;;15.05;2.25;;;17.80;97.50;;;;;;10529118;28;20686;-44
2022/10/22 10:26:01;;;;;;;16.33;2.83;;;18.20;96.60;;;;;;10533492;28;20064;-43
2022/10/22 10:31:12;;;;;;;9.57;1.63;;;17.80;97.90;;;;;;10528803;28;20438;-44
2022/10/22 10:36:25;;;;;;;20.98;3.45;;;18.00;96.50;;;;;;10528760;28;20511;-42
2022/10/22 10:41:37;;;;;;;13.30;1.95;;;17.60;97.90;;;;;;10527813;28;20138;-44
2022/10/22 10:46:47;;;;;;;16.42;2.13;;;18.20;96.20;;;;;;10531334;28;20424;-44
2022/10/22 10:51:58;;;;;;;10.40;1.95;;;18.20;96.40;;;;;;10529341;28;20052;-45
2022/10/22 10:57:09;;;;;;;15.60;2.38;;;18.80;93.90;;;;;;10526902;28;20040;-46
2022/10/22 11:02:42;;;;;;;15.57;2.28;;;18.40;95.30;;;;;;10528153;28;20048;-44
2022/10/22 11:07:48;;;;;;;8.23;1.55;;;18.20;95.30;;;;;;10527001;28;20044;-43
2022/10/22 11:12:56;;;;;;;12.73;1.98;;;17.90;96.60;;;;;;10529172;28;20113;-37
2022/10/22 11:18:06;;;;;;;19.20;2.13;;;18.30;94.30;;;;;;10531484;28;20456;-43
2022/10/22 11:23:14;;;;;;;22.40;2.67;;;18.20;94.70;;;;;;10525900;28;20056;-44
2022/10/22 11:28:24;;;;;;;12.05;2.25;;;17.90;95.50;;;;;;10542932;28;20052;-44
2022/10/22 11:33:33;;;;;;;15.52;2.05;;;18.10;96.00;;;;;;10537858;28;20082;-42
2022/10/22 11:38:35;;;;;;;16.60;2.55;;;18.60;94.60;;;;;;10524978;28;20055;-44
2022/10/22 11:43:52;;;;;;;;;;;18.00;96.10;;;;;;10543536;28;20080;-43
2022/10/22 11:49:05;;;;;;;15.02;2.20;;;17.90;96.90;;;;;;10535987;28;19924;-41
2022/10/22 11:54:31;;;;;;;12.27;1.98;;;18.60;95.30;;;;;;10530680;28;20052;-41
2022/10/22 11:59:39;;;;;;;21.45;2.38;;;19.00;94.60;;;;;;10540313;28;20102;-44
2022/10/22 12:04:42;;;;;;;15.18;2.40;;;18.40;95.70;;;;;;10535988;28;20481;-44
2022/10/22 12:09:50;;;;;;;15.45;2.85;;;19.20;94.10;;;;;;10530069;28;20224;-41
2022/10/22 12:14:54;;;;;;;15.90;2.05;;;19.80;92.00;;;;;;10533536;28;20048;-45
2022/10/22 12:20:02;;;;;;;15.82;2.28;;;19.70;92.40;;;;;;10535614;28;20479;-47
2022/10/22 12:25:18;;;;;;;23.23;3.22;;;19.20;91.90;;;;;;10544432;28;20135;-46
2022/10/22 12:30:23;;;;;;;19.20;2.08;;;19.70;90.00;;;;;;10532512;28;20085;-42
2022/10/22 12:35:28;;;;;;;16.23;2.38;;;19.10;92.40;;;;;;10530321;28;20484;-44
2022/10/22 12:40:34;;;;;;;18.63;2.55;;;19.80;91.60;;;;;;10533141;28;20076;-46
2022/10/22 12:45:36;;;;;;;9.18;1.95;;;19.80;90.50;;;;;;10536466;28;20101;-42
2022/10/22 12:50:44;;;;;;;20.23;3.13;;;20.10;90.70;;;;;;10521906;27;20548;-42
2022/10/22 12:55:49;;;;;;;21.58;2.22;;;19.50;91.20;;;;;;10511920;28;20131;-44
2022/10/22 13:00:56;;;;;;;16.00;1.98;;;19.40;90.00;;;;;;10537045;28;20044;-44
2022/10/22 13:06:12;;;;;;;15.35;3.80;;;19.40;91.50;;;;;;10533045;28;20076;-40
2022/10/22 13:11:13;;;;;;;18.73;2.35;;;19.70;91.00;;;;;;10535210;28;20044;-43
2022/10/22 13:16:19;;;;;;;15.38;2.70;;;20.10;88.30;;;;;;10533204;28;20515;-43
2022/10/22 13:21:28;;;;;;;14.10;2.90;;;19.90;90.00;;;;;;10533059;28;20100;-43
2022/10/22 13:26:34;;;;;;;16.92;2.15;;;19.80;83.90;;;;;;10538481;28;20093;-43
2022/10/22 13:31:37;;;;;;;9.30;2.33;;;19.90;81.30;;;;;;10531533;28;20055;-46
2022/10/22 13:36:40;;;;;;;8.85;1.45;;;19.90;81.10;;;;;;10532218;28;20058;-41
2022/10/22 13:41:42;;;;;;;11.85;1.45;;;19.70;89.30;;;;;;10533344;28;20060;-44
2022/10/22 13:46:44;;;;;;;10.85;1.75;;;19.50;91.30;;;;;;10532431;28;20076;-44
2022/10/22 13:51:49;;;;;;;17.35;2.38;;;19.60;91.30;;;;;;10529460;28;20158;-44
2022/10/22 13:56:52;;;;;;;15.35;2.00;;;19.70;90.60;;;;;;10538675;28;20048;-42
2022/10/22 14:01:55;;;;;;;22.73;2.63;;;19.60;90.50;;;;;;10532653;28;20079;-42
2022/10/22 14:06:58;;;;;;;20.58;2.75;;;18.90;92.40;;;;;;10529859;28;20040;-43
2022/10/22 14:12:00;;;;;;;11.85;2.50;;;19.40;91.40;;;;;;10530484;28;20051;-44
2022/10/22 14:17:02;;;;;;;18.48;3.22;;;19.40;91.40;;;;;;10529558;28;20135;-41
2022/10/22 14:22:07;;;;;;;10.48;1.52;;;19.40;92.30;;;;;;10528674;28;20160;-41
2022/10/22 14:27:12;;;;;;;11.35;2.03;;;19.70;93.20;;;;;;10523416;28;20071;-44
2022/10/22 14:32:15;;;;;;;9.43;1.90;;;20.10;90.20;;;;;;10530086;28;20051;-44
2022/10/22 14:37:22;;;;;;;14.18;2.55;;;20.40;87.10;;;;;;10523917;28;20066;-41
2022/10/22 14:42:25;;;;;;;13.80;2.08;;;20.60;86.90;;;;;;10531408;28;20047;-40
2022/10/22 14:47:27;;;;;;;10.45;1.70;;;20.90;83.70;;;;;;10530713;28;20082;-43
2022/10/22 14:52:30;;;;;;;12.32;1.90;;;20.50;84.70;;;;;;10528914;28;20597;-36
2022/10/22 14:57:32;;;;;;;16.80;3.05;;;20.90;85.40;;;;;;10526447;28;20056;-30
2022/10/22 15:02:34;;;;;;;10.27;1.83;;;21.20;89.90;;;;;;10526361;28;20143;-39
2022/10/22 15:07:38;;;;;;;8.57;1.35;;;20.90;88.60;;;;;;10528638;28;20071;-40
2022/10/22 15:12:40;;;;;;;14.48;2.30;;;20.80;89.10;;;;;;10533097;28;20047;-39
2022/10/22 15:17:42;;;;;;;;;;;20.60;87.50;;;;;;10533888;28;20470;-38
2022/10/22 15:22:45;;;;;;;7.23;2.30;;;21.40;88.30;;;;;;10536945;28;19969;-39
2022/10/22 15:27:47;;;;;;;18.73;2.05;;;21.10;86.60;;;;;;10534168;28;20492;-39
2022/10/22 15:32:49;;;;;;;8.88;1.65;;;20.90;87.70;;;;;;10532675;28;20471;-39
2022/10/22 15:37:52;;;;;;;3.80;1.30;;;21.00;90.00;;;;;;10536937;28;20097;-38
2022/10/22 15:42:54;;;;;;;8.70;1.35;;;21.10;87.90;;;;;;10535187;28;20139;-38
2022/10/22 15:47:56;;;;;;;;;;;21.50;86.80;;;;;;10535549;28;20420;-36
2022/10/22 15:52:59;;;;;;;16.33;1.90;;;21.00;86.90;;;;;;10529929;28;19928;-39
2022/10/22 15:58:01;;;;;;;4.53;1.10;;;20.60;90.70;;;;;;10534213;28;20125;-38
2022/10/22 16:03:03;;;;;;;4.03;1.02;;;21.10;87.50;;;;;;10523637;28;20049;-38
2022/10/22 16:08:06;;;;;;;5.85;0.90;;;21.70;87.60;;;;;;10541385;28;20068;-38
2022/10/22 16:13:08;;;;;;;6.18;1.30;;;21.60;89.70;;;;;;10535250;28;20090;-39
2022/10/22 16:18:09;;;;;;;2.63;0.95;;;22.10;84.90;;;;;;10531391;28;20072;-38
2022/10/22 16:23:17;;;;;;;2.58;1.10;;;22.50;81.90;;;;;;10537544;28;20147;-40
2022/10/22 16:28:19;;;;;;;4.43;1.30;;;23.00;81.10;;;;;;10533457;28;20054;-39
2022/10/22 16:33:21;;;;;;;3.75;0.80;;;21.60;79.90;;;;;;10532315;28;20570;-39
2022/10/22 16:38:24;;;;;;;5.47;0.90;;;22.60;80.20;;;;;;10531907;28;20472;-38
2022/10/22 16:43:26;;;;;;;2.75;0.80;;;22.70;80.00;;;;;;10521814;28;20216;-39
2022/10/22 16:48:27;;;;;;;3.78;1.55;;;22.70;80.10;;;;;;10532941;28;20040;-37
2022/10/22 16:53:31;;;;;;;5.20;1.67;;;22.50;79.60;;;;;;10536284;28;20169;-38
2022/10/22 16:58:32;;;;;;;5.47;1.58;;;22.70;80.70;;;;;;10537761;28;20047;-39
2022/10/22 17:03:35;;;;;;;3.90;1.73;;;22.70;81.10;;;;;;10533115;28;20070;-38
2022/10/22 17:08:40;;;;;;;3.67;1.60;;;22.70;81.40;;;;;;10536261;28;20473;-38
2022/10/22 17:13:42;;;;;;;7.07;2.60;;;22.60;81.40;;;;;;10530884;28;20083;-40
2022/10/22 17:18:45;;;;;;;6.10;1.80;;;22.70;81.50;;;;;;10525475;28;20667;-38
2022/10/22 17:23:49;;;;;;;3.55;1.88;;;22.70;81.60;;;;;;10527970;28;20084;-38
2022/10/22 17:28:51;;;;;;;10.80;2.35;;;22.60;82.00;;;;;;10529648;28;20039;-38
2022/10/22 17:33:55;;;;;;;4.55;1.92;;;22.50;82.40;;;;;;10529632;28;20377;-38
2022/10/22 17:39:01;;;;;;;4.47;2.08;;;22.50;82.50;;;;;;10529433;28;20044;-38
2022/10/22 17:44:07;;;;;;;8.07;1.90;;;21.40;93.40;;;;;;10525213;28;20545;-38
2022/10/22 17:49:15;;;;;;;6.20;1.90;;;22.50;82.90;;;;;;10531337;28;20044;-37
2022/10/22 17:54:19;;;;;;;4.90;2.05;;;22.50;83.10;;;;;;10526216;28;20052;-38
2022/10/22 17:59:20;;;;;;;7.22;2.53;;;23.00;83.40;;;;;;10532964;28;20135;-38
2022/10/22 18:04:22;;;;;;;4.18;2.10;;;22.40;83.30;;;;;;10529914;28;20058;-38
2022/10/22 18:09:26;;;;;;;9.57;2.30;;;22.40;83.40;;;;;;10528473;28;20067;-38
2022/10/22 18:14:28;;;;;;;6.90;2.10;;;22.40;83.50;;;;;;10533235;28;20053;-38
2022/10/22 18:19:30;;;;;;;;;;;22.40;83.70;;;;;;10522890;28;20056;-38
2022/10/22 18:24:34;;;;;;;6.40;2.45;;;22.40;83.80;;;;;;10537930;28;19963;-38
2022/10/22 18:29:37;;;;;;;6.07;2.20;;;22.40;83.90;;;;;;10529943;28;20093;-37
2022/10/22 18:34:39;;;;;;;9.57;2.70;;;22.40;84.10;;;;;;10521803;28;20105;-38
2022/10/22 18:39:42;;;;;;;;;;;22.40;84.40;;;;;;10520307;28;20044;-38
2022/10/22 18:44:44;;;;;;;7.53;2.78;;;22.40;84.70;;;;;;10523002;28;19924;-37
2022/10/22 18:49:46;;;;;;;6.45;2.97;;;22.40;84.60;;;;;;10534133;28;20752;-37
2022/10/22 18:54:49;;;;;;;8.13;3.28;;;22.30;85.00;;;;;;10536312;28;20051;-38
2022/10/22 18:59:51;;;;;;;7.82;3.08;;;22.30;84.70;;;;;;10538244;28;20150;-43
2022/10/22 19:04:52;;;;;;;5.45;2.97;;;23.20;85.40;;;;;;10536608;28;20067;-38
2022/10/22 19:09:58;;;;;;;5.72;3.38;;;22.30;84.80;;;;;;10535575;28;20048;-39
2022/10/22 19:15:00;;;;;;;5.95;3.42;;;22.50;85.00;;;;;;10538968;28;20048;-39
2022/10/22 19:20:02;;;;;;;;;;;22.40;84.70;;;;;;10535790;28;20082;-40
2022/10/22 19:25:06;;;;;;;6.70;3.63;;;21.40;84.10;;;;;;10536391;28;19993;-36
2022/10/22 19:30:09;;;;;;;9.57;4.10;;;22.30;84.60;;;;;;10535480;28;20826;-40
2022/10/22 19:35:11;;;;;;;12.80;4.53;;;22.30;84.60;;;;;;10536338;28;20113;-39
2022/10/22 19:40:14;;;;;;;8.93;4.72;;;22.20;84.60;;;;;;10533090;28;20091;-40
2022/10/22 19:45:17;;;;;;;15.95;5.07;;;22.20;84.60;;;;;;10535599;28;20528;-39
2022/10/22 19:50:18;;;;;;;8.77;4.40;;;22.20;84.40;;;;;;10535928;28;20050;-39
2022/10/22 19:55:22;;;;;;;8.70;4.65;;;22.20;84.40;;;;;;10533294;28;20892;-40
2022/10/22 20:00:23;;;;;;;14.80;5.13;;;22.40;84.40;;;;;;10533899;28;20056;-39
2022/10/22 20:05:25;;;;;;;13.73;5.10;;;22.10;84.20;;;;;;10534337;28;20500;-38
2022/10/22 20:10:29;;;;;;;11.13;5.15;;;22.10;84.20;;;;;;10533316;28;20471;-40
2022/10/22 20:15:31;;;;;;;17.83;5.57;;;22.10;84.10;;;;;;10532025;28;20048;-38
2022/10/22 20:20:34;;;;;;;18.45;6.32;;;22.00;84.10;;;;;;10533102;28;20147;-36
2022/10/22 20:25:41;;;;;;;12.27;5.68;;;22.10;84.10;;;;;;10541339;28;20683;-39
2022/10/22 20:30:43;;;;;;;11.10;5.53;;;22.00;84.00;;;;;;10531816;28;20111;-41
2022/10/22 20:35:45;;;;;;;12.18;4.57;;;22.50;84.20;;;;;;10534082;28;20143;-39
2022/10/22 20:40:49;;;;;;;13.68;5.78;;;21.50;83.70;;;;;;10533146;28;20408;-38
2022/10/22 20:45:51;;;;;;;13.32;5.07;;;21.60;83.60;;;;;;10529546;28;20123;-38
2022/10/22 20:50:53;;;;;;;12.25;5.00;;;22.00;83.80;;;;;;10533209;28;20075;-39
2022/10/22 20:55:58;;;;;;;9.05;4.38;;;22.00;83.80;;;;;;10532686;28;20050;-36
2022/10/22 21:01:08;;;;;;;9.82;4.22;;;21.90;83.70;;;;;;10527098;28;20553;-38
2022/10/22 21:06:09;;;;;;;12.75;4.57;;;21.90;83.90;;;;;;10527399;28;20051;-38
2022/10/22 21:11:13;;;;;;;14.13;4.60;;;21.90;83.80;;;;;;10529702;28;20123;-38
2022/10/22 21:16:17;;;;;;;11.18;4.30;;;21.90;83.90;;;;;;10532999;28;20047;-38
2022/10/22 21:21:18;;;;;;;9.75;4.43;;;21.80;83.80;;;;;;10531321;28;20184;-39
2022/10/22 21:26:22;;;;;;;8.35;4.65;;;21.90;84.40;;;;;;10533210;28;20075;-39
2022/10/22 21:31:25;;;;;;;9.82;3.70;;;21.80;83.80;;;;;;10527691;28;20045;-39
2022/10/22 21:36:27;;;;;;;8.90;4.10;;;21.80;83.70;;;;;;10530997;28;20048;-38
2022/10/22 21:41:30;;;;;;;;;;;21.80;83.60;;;;;;10529823;28;20067;-38
2022/10/22 21:46:32;;;;;;;10.00;3.85;;;21.80;83.60;;;;;;10509875;28;20026;-41
2022/10/22 21:51:36;;;;;;;7.88;3.90;;;21.80;83.60;;;;;;10529068;28;20048;-39
2022/10/22 21:56:40;;;;;;;8.88;3.63;;;21.80;83.60;;;;;;10529925;28;20082;-39
2022/10/22 22:01:42;;;;;;;10.40;3.97;;;21.70;83.60;;;;;;10528309;28;20089;-39
2022/10/22 22:06:44;;;;;;;9.77;4.25;;;21.70;83.70;;;;;;10525727;28;20086;-40
2022/10/22 22:11:47;;;;;;;8.80;3.78;;;21.70;83.50;;;;;;10526605;28;20052;-40
2022/10/22 22:16:49;;;;;;;8.93;4.25;;;21.70;83.70;;;;;;10527123;28;20141;-32
2022/10/22 22:21:51;;;;;;;9.93;4.05;;;21.70;83.60;;;;;;10524728;28;20143;-35
2022/10/22 22:26:54;;;;;;;8.45;4.68;;;21.70;83.70;;;;;;10528130;28;20087;-38
2022/10/22 22:31:56;;;;;;;6.70;3.47;;;21.70;83.70;;;;;;10529308;28;20531;-38
2022/10/22 22:36:58;;;;;;;12.52;3.78;;;21.70;83.70;;;;;;10530541;28;20094;-38
2022/10/22 22:42:01;;;;;;;10.15;3.80;;;21.70;83.70;;;;;;10530448;28;20500;-39
2022/10/22 22:47:03;;;;;;;13.10;3.83;;;21.60;83.70;;;;;;10526175;28;20056;-38
2022/10/22 22:52:05;;;;;;;7.05;3.05;;;21.60;83.50;;;;;;10529032;28;20465;-40
2022/10/22 22:57:08;;;;;;;6.45;3.78;;;21.60;83.70;;;;;;10520161;28;20052;-39
2022/10/22 23:02:10;;;;;;;6.50;3.42;;;21.60;83.40;;;;;;10525116;28;20667;-39
2022/10/22 23:07:12;;;;;;;8.60;3.65;;;21.60;83.60;;;;;;10527750;28;20524;-36
2022/10/22 23:12:15;;;;;;;7.22;2.90;;;21.50;83.70;;;;;;10526327;28;20674;-38
2022/10/22 23:17:18;;;;;;;5.57;3.15;;;21.60;83.70;;;;;;10530736;28;20753;-38
2022/10/22 23:22:19;;;;;;;6.22;3.05;;;21.50;83.60;;;;;;10535074;28;20056;-38
2022/10/22 23:27:22;;;;;;;7.75;3.67;;;21.60;83.70;;;;;;10531687;28;20447;-38
2022/10/22 23:32:25;;;;;;;5.90;3.03;;;21.50;83.70;;;;;;10536430;28;20064;-38
2022/10/22 23:37:26;;;;;;;12.10;3.33;;;21.50;83.50;;;;;;10537403;28;20052;-39
2022/10/22 23:42:29;;;;;;;10.15;3.00;;;21.50;83.50;;;;;;10536899;28;20168;-38
2022/10/22 23:47:31;;;;;;;13.85;4.20;;;21.50;83.60;;;;;;10538348;28;20044;-39
2022/10/22 23:52:33;;;;;;;8.93;3.42;;;22.10;84.00;;;;;;10539187;28;20139;-39
2022/10/22 23:57:36;;;;;;;7.60;3.00;;;21.40;83.80;;;;;;10524941;28;20558;-38
